Time;durP1;ratioP1;P1;durP2;ratioP2;P2;SDS_P1;SDS_P2;PMS_P1;PMS_P2;Temp;Humidity;BMP_temperature;BMP_pressure;BME280_temperature;BME280_humidity;BME280_pressure;Samples;Min_cycle;Max_cycle;Signal;HPM_P1;HPM_P2
2021/03/06 00:02:08;;;;;;;17.90;8.30;;;1.00;86.60;;;;;;6150747;28;20121;-77
2021/03/06 00:05:12;;;;;;;10.63;7.20;;;0.90;87.50;;;;;;6150492;28;20587;-76
2021/03/06 00:08:14;;;;;;;12.73;5.70;;;0.90;86.90;;;;;;6150606;28;20126;-76
2021/03/06 00:11:15;;;;;;;6.50;4.63;;;0.90;85.10;;;;;;6150472;28;20532;-75
2021/03/06 00:14:16;;;;;;;8.80;5.23;;;0.90;86.30;;;;;;6150867;28;20413;-77
2021/03/06 00:17:18;;;;;;;7.90;4.53;;;0.80;87.20;;;;;;6151092;28;20066;-77
2021/03/06 00:20:20;;;;;;;7.60;4.20;;;0.70;86.70;;;;;;6149065;28;20118;-77
2021/03/06 00:23:22;;;;;;;6.87;4.73;;;0.70;84.60;;;;;;6150590;28;20872;-76
2021/03/06 00:26:23;;;;;;;6.47;4.20;;;0.70;84.40;;;;;;6134606;28;20138;-76
2021/03/06 00:29:25;;;;;;;6.50;4.70;;;0.70;84.40;;;;;;6140811;28;20098;-76
2021/03/06 00:32:26;;;;;;;7.97;5.87;;;0.60;84.00;;;;;;6149544;28;20057;-76
2021/03/06 00:35:28;;;;;;;8.50;5.10;;;0.60;83.90;;;;;;6143001;28;20054;-76
2021/03/06 00:38:30;;;;;;;5.90;4.73;;;0.60;83.70;;;;;;6127412;28;20059;-77
2021/03/06 00:41:32;;;;;;;8.40;5.30;;;0.60;83.90;;;;;;6189769;23;20046;-78
2021/03/06 00:44:33;;;;;;;6.10;4.60;;;0.50;84.40;;;;;;6192616;28;20106;-78
2021/03/06 00:47:36;;;;;;;6.70;4.63;;;0.60;83.30;;;;;;6178835;28;20130;-78
2021/03/06 00:50:38;;;;;;;7.07;5.77;;;0.60;82.90;;;;;;6179028;28;20051;-78
2021/03/06 00:53:40;;;;;;;7.00;4.67;;;0.60;82.40;;;;;;6178223;28;20049;-78
2021/03/06 00:56:41;;;;;;;7.20;4.70;;;0.50;82.20;;;;;;6177405;28;20043;-78
2021/03/06 00:59:42;;;;;;;7.00;3.93;;;0.50;82.30;;;;;;6178387;28;20129;-78
2021/03/06 01:02:44;;;;;;;9.67;5.13;;;0.50;82.50;;;;;;6192034;28;20093;-78
2021/03/06 01:05:45;;;;;;;6.93;5.47;;;0.40;82.60;;;;;;6184869;28;20062;-78
2021/03/06 01:08:47;;;;;;;9.77;5.20;;;0.40;82.50;;;;;;6177895;28;20078;-78
2021/03/06 01:11:49;;;;;;;5.17;4.50;;;0.40;81.60;;;;;;6178397;28;20066;-78
2021/03/06 01:14:50;;;;;;;5.07;3.53;;;0.40;81.80;;;;;;6175371;28;20066;-78
2021/03/06 01:17:51;;;;;;;5.30;4.03;;;0.40;82.20;;;;;;6177142;28;20047;-78
2021/03/06 01:20:53;;;;;;;8.07;3.63;;;0.40;82.50;;;;;;6177097;28;20050;-78
2021/03/06 01:23:55;;;;;;;6.57;4.10;;;0.30;83.80;;;;;;6177568;28;20523;-78
2021/03/06 01:26:56;;;;;;;9.13;3.80;;;0.30;83.60;;;;;;6177938;28;20096;-78
2021/03/06 01:29:57;;;;;;;8.00;3.87;;;0.30;84.10;;;;;;6177706;28;20051;-78
2021/03/06 01:32:59;;;;;;;6.87;4.67;;;0.20;85.30;;;;;;6177793;28;20057;-78
2021/03/06 01:36:01;;;;;;;5.63;3.50;;;0.20;84.60;;;;;;6177044;28;20122;-78
2021/03/06 01:39:03;;;;;;;9.07;4.90;;;0.20;83.80;;;;;;6177708;28;20065;-77
2021/03/06 01:42:05;;;;;;;5.70;4.20;;;0.20;83.40;;;;;;6176883;28;20122;-78
2021/03/06 01:45:09;;;;;;;8.10;4.77;;;0.20;84.60;;;;;;6178225;28;20051;-78
2021/03/06 01:48:11;;;;;;;7.60;5.00;;;0.00;84.50;;;;;;6177142;28;20074;-79
2021/03/06 01:51:12;;;;;;;11.63;3.90;;;0.00;85.10;;;;;;6177354;28;20051;-79
2021/03/06 01:54:15;;;;;;;5.63;4.97;;;-0.10;86.00;;;;;;6176673;28;20185;-79
2021/03/06 01:57:17;;;;;;;9.70;5.60;;;-0.20;85.70;;;;;;6178394;28;20047;-79
2021/03/06 02:00:20;;;;;;;5.77;4.20;;;-0.20;85.30;;;;;;6181972;28;20058;-78
2021/03/06 02:03:21;;;;;;;9.07;5.53;;;-0.20;84.30;;;;;;6181503;28;20090;-78
2021/03/06 02:06:23;;;;;;;5.77;5.20;;;-0.20;83.90;;;;;;6181541;28;20101;-78
2021/03/06 02:09:26;;;;;;;11.50;5.53;;;-0.20;84.10;;;;;;6181846;28;20436;-78
2021/03/06 02:12:33;;;;;;;8.67;5.27;;;-0.30;83.90;;;;;;6180586;28;20154;-78
2021/03/06 02:15:54;;;;;;;8.13;5.18;;;-0.30;84.20;;;;;;6181470;28;20386;-79
2021/03/06 02:19:01;;;;;;;7.53;5.23;;;-0.40;84.70;;;;;;6182018;28;20050;-79
2021/03/06 02:22:26;;;;;;;16.25;7.28;;;-0.40;85.80;;;;;;6180642;28;20047;-78
2021/03/06 02:26:01;;;;;;;8.97;5.83;;;-0.50;86.30;;;;;;6181042;28;20145;-78
2021/03/06 02:29:12;;;;;;;8.50;4.90;;;-0.50;86.90;;;;;;6180275;28;20476;-78
2021/03/06 02:32:21;;;;;;;7.80;4.87;;;-0.60;87.60;;;;;;6181174;28;20130;-78
2021/03/06 02:35:26;;;;;;;10.20;6.63;;;-0.60;88.10;;;;;;6182703;28;20043;-78
2021/03/06 02:38:29;;;;;;;11.77;5.17;;;-0.70;88.30;;;;;;6182506;28;20479;-78
2021/03/06 02:41:33;;;;;;;13.53;6.67;;;-0.70;88.30;;;;;;6181387;28;20130;-78
2021/03/06 02:44:35;;;;;;;8.83;6.63;;;-0.70;88.20;;;;;;6181625;28;20046;-79
2021/03/06 02:47:38;;;;;;;9.77;5.90;;;-0.70;88.20;;;;;;6183743;28;20117;-78
2021/03/06 02:50:39;;;;;;;10.80;6.10;;;-0.70;88.10;;;;;;6182142;28;20592;-78
2021/03/06 02:53:41;;;;;;;14.27;5.70;;;-0.70;88.10;;;;;;6181612;28;20062;-78
2021/03/06 02:56:43;;;;;;;10.83;6.87;;;-0.80;88.20;;;;;;6180054;28;20073;-78
2021/03/06 03:00:00;;;;;;;12.03;7.80;;;-0.80;88.20;;;;;;6179989;28;20094;-79
2021/03/06 03:03:16;;;;;;;11.23;6.17;;;-0.80;88.70;;;;;;6182620;28;20086;-79
2021/03/06 03:06:23;;;;;;;10.20;6.27;;;-0.90;89.20;;;;;;6183333;28;20656;-78
2021/03/06 03:09:26;;;;;;;8.95;5.60;;;-1.00;90.10;;;;;;6181678;28;20042;-78
2021/03/06 03:12:34;;;;;;;11.27;7.20;;;-1.00;90.20;;;;;;6181149;28;20074;-79
2021/03/06 03:15:37;;;;;;;;;;;-1.00;90.00;;;;;;6181343;28;20063;-77
2021/03/06 03:18:45;;;;;;;7.83;6.70;;;-1.00;90.40;;;;;;6181887;28;20351;-79
2021/03/06 03:21:49;;;;;;;7.70;6.07;;;-1.10;90.30;;;;;;6179727;28;20049;-79
2021/03/06 03:24:53;;;;;;;7.77;5.97;;;-1.10;90.30;;;;;;6180863;28;20090;-79
2021/03/06 03:27:55;;;;;;;12.47;6.70;;;-1.10;90.20;;;;;;6179564;28;20137;-78
2021/03/06 03:30:58;;;;;;;8.10;6.20;;;-1.10;90.00;;;;;;6180126;28;20094;-78
2021/03/06 03:34:01;;;;;;;11.80;7.40;;;-1.10;90.20;;;;;;6179738;28;20126;-79
2021/03/06 03:37:04;;;;;;;10.83;7.07;;;-1.10;90.40;;;;;;6180481;28;20134;-79
2021/03/06 03:40:06;;;;;;;8.80;6.17;;;-1.20;90.50;;;;;;6179097;28;20540;-78
2021/03/06 03:43:07;;;;;;;8.10;5.53;;;-1.20;90.70;;;;;;6180551;28;20046;-78
2021/03/06 03:46:10;;;;;;;13.03;7.20;;;-1.30;90.70;;;;;;6178971;28;20047;-77
2021/03/06 03:49:17;;;;;;;6.83;5.57;;;-1.30;90.80;;;;;;6178920;28;20138;-79
2021/03/06 03:52:19;;;;;;;9.07;7.40;;;-1.30;90.70;;;;;;6180289;28;20512;-79
2021/03/06 03:55:20;;;;;;;14.77;8.20;;;-1.30;90.80;;;;;;6179613;28;20043;-78
2021/03/06 03:58:22;;;;;;;10.10;6.90;;;-1.40;90.90;;;;;;6179851;28;20571;-78
2021/03/06 04:01:23;;;;;;;12.40;6.23;;;-1.40;91.20;;;;;;6179896;28;20047;-78
2021/03/06 04:04:30;;;;;;;10.93;6.50;;;-1.50;91.30;;;;;;6179375;28;20043;-78
2021/03/06 04:07:40;;;;;;;7.70;5.40;;;-1.60;91.60;;;;;;6180319;28;20090;-78
2021/03/06 04:10:42;;;;;;;10.97;7.97;;;-1.60;91.70;;;;;;6180109;28;20066;-78
2021/03/06 04:13:43;;;;;;;9.83;6.13;;;-1.70;91.90;;;;;;6179141;28;20039;-78
2021/03/06 04:16:44;;;;;;;11.80;7.30;;;-1.70;92.10;;;;;;6180490;28;20129;-78
2021/03/06 04:19:47;;;;;;;9.80;7.37;;;-1.70;92.20;;;;;;6179671;28;20405;-79
2021/03/06 04:22:48;;;;;;;11.30;7.30;;;-1.70;92.10;;;;;;6180101;28;20054;-78
2021/03/06 04:25:50;;;;;;;8.67;6.37;;;-1.60;91.90;;;;;;6179215;28;20173;-78
2021/03/06 04:28:52;;;;;;;8.60;7.23;;;-1.60;91.80;;;;;;6180254;28;20078;-78
2021/03/06 04:31:53;;;;;;;9.90;5.90;;;-1.50;91.50;;;;;;6179930;28;20047;-79
2021/03/06 04:34:55;;;;;;;10.40;6.90;;;-1.40;90.90;;;;;;6183253;28;20090;-77
2021/03/06 04:37:57;;;;;;;5.20;4.70;;;-1.40;90.90;;;;;;6180669;28;20050;-79
2021/03/06 04:40:58;;;;;;;7.70;6.20;;;-1.40;91.20;;;;;;6180924;28;20093;-78
2021/03/06 04:43:59;;;;;;;7.97;5.80;;;-1.50;91.30;;;;;;6179587;28;20058;-79
2021/03/06 04:47:04;;;;;;;10.30;5.73;;;-1.50;91.40;;;;;;6180822;28;20065;-78
2021/03/06 04:50:07;;;;;;;9.10;5.87;;;-1.50;91.40;;;;;;6181986;28;20055;-78
2021/03/06 04:53:09;;;;;;;10.13;7.17;;;-1.60;91.30;;;;;;6182069;28;20051;-78
2021/03/06 04:56:10;;;;;;;10.43;6.57;;;-1.70;91.40;;;;;;6184047;28;20042;-79
2021/03/06 04:59:11;;;;;;;12.03;7.33;;;-1.70;91.70;;;;;;6191140;28;20086;-78
2021/03/06 05:02:13;;;;;;;10.87;6.97;;;-1.80;92.00;;;;;;6186804;28;20047;-78
2021/03/06 05:05:15;;;;;;;12.17;8.13;;;-1.80;92.10;;;;;;6178646;28;20160;-78
2021/03/06 05:08:16;;;;;;;9.53;6.90;;;-1.80;92.10;;;;;;6191690;28;20038;-78
2021/03/06 05:11:17;;;;;;;7.63;6.17;;;-1.80;92.00;;;;;;6185393;28;20051;-78
2021/03/06 05:14:19;;;;;;;12.77;6.80;;;-1.70;91.60;;;;;;6177537;28;20062;-78
2021/03/06 05:17:20;;;;;;;11.93;8.20;;;-1.60;91.20;;;;;;6177136;28;20167;-78
2021/03/06 05:20:23;;;;;;;8.30;6.10;;;-1.60;91.00;;;;;;6178090;28;20078;-78
2021/03/06 05:23:24;;;;;;;15.30;11.13;;;-1.60;91.10;;;;;;6178137;28;20047;-79
2021/03/06 05:26:25;;;;;;;16.03;10.23;;;-1.60;91.20;;;;;;6179599;28;20074;-79
2021/03/06 05:29:27;;;;;;;15.80;10.97;;;-1.70;91.40;;;;;;6177085;28;20412;-77
2021/03/06 05:32:28;;;;;;;19.57;12.10;;;-1.70;91.70;;;;;;6177634;28;20077;-77
2021/03/06 05:35:31;;;;;;;16.30;10.43;;;-1.50;92.80;;;;;;6177731;28;20082;-78
2021/03/06 05:38:32;;;;;;;18.77;11.17;;;-1.50;92.00;;;;;;6179667;28;20133;-78
2021/03/06 05:41:34;;;;;;;14.67;9.23;;;-1.50;91.40;;;;;;6178275;28;20051;-77
2021/03/06 05:44:37;;;;;;;28.93;13.20;;;-1.50;91.20;;;;;;6177901;28;20055;-77
2021/03/06 05:47:39;;;;;;;33.10;16.70;;;-1.50;90.90;;;;;;6178635;28;20113;-77
2021/03/06 05:50:41;;;;;;;24.57;12.73;;;-1.50;90.80;;;;;;6179235;28;20055;-77
2021/03/06 05:53:44;;;;;;;30.70;13.07;;;-1.60;90.90;;;;;;6177962;28;20039;-78
2021/03/06 05:56:45;;;;;;;44.83;20.13;;;-1.50;90.90;;;;;;6178184;28;20189;-77
2021/03/06 05:59:48;;;;;;;34.73;17.23;;;-1.60;90.70;;;;;;6178771;28;20063;-77
2021/03/06 06:02:49;;;;;;;18.17;7.90;;;-1.60;90.70;;;;;;6177680;28;20141;-77
2021/03/06 06:05:53;;;;;;;12.37;6.97;;;-1.50;90.80;;;;;;6177433;28;20141;-77
2021/03/06 06:08:55;;;;;;;11.60;6.63;;;-1.60;90.80;;;;;;6172083;28;20053;-77
2021/03/06 06:11:56;;;;;;;7.30;5.40;;;-1.60;90.30;;;;;;6158722;28;20043;-77
2021/03/06 06:14:57;;;;;;;11.60;5.17;;;-1.50;90.10;;;;;;6166864;28;20047;-77
2021/03/06 06:17:59;;;;;;;9.67;6.77;;;-1.50;90.20;;;;;;6169828;28;20051;-77
2021/03/06 06:21:01;;;;;;;12.97;7.93;;;-1.50;90.00;;;;;;6168980;28;20075;-77
2021/03/06 06:24:03;;;;;;;10.57;6.73;;;-1.50;89.70;;;;;;6169675;28;20074;-76
2021/03/06 06:27:05;;;;;;;8.13;5.27;;;-1.50;89.70;;;;;;6166201;28;20153;-77
2021/03/06 06:30:12;;;;;;;8.03;5.83;;;-1.40;89.50;;;;;;6168650;28;20043;-77
2021/03/06 06:33:32;;;;;;;7.60;6.23;;;-1.40;88.40;;;;;;6174213;28;20485;-77
2021/03/06 06:36:38;;;;;;;6.03;4.50;;;-1.30;88.30;;;;;;6174326;28;20130;-78
2021/03/06 06:39:40;;;;;;;8.13;6.83;;;-1.20;88.10;;;;;;6169640;28;20051;-77
2021/03/06 06:42:41;;;;;;;10.37;5.47;;;-1.20;87.10;;;;;;6183566;28;20524;-77
2021/03/06 06:45:43;;;;;;;6.47;4.77;;;-1.10;87.20;;;;;;6182561;28;20067;-79
2021/03/06 06:48:59;;;;;;;8.47;5.20;;;-1.00;86.30;;;;;;6183999;28;20412;-79
2021/03/06 06:52:03;;;;;;;10.60;4.77;;;-0.90;85.60;;;;;;6182470;28;20074;-78
2021/03/06 06:55:06;;;;;;;8.20;5.80;;;-0.80;85.30;;;;;;6171599;28;20172;-79
2021/03/06 06:58:07;;;;;;;8.63;6.53;;;-0.70;84.50;;;;;;6171096;28;20097;-78
2021/03/06 07:01:30;;;;;;;6.40;4.40;;;-0.60;83.90;;;;;;6168591;28;20051;-78
2021/03/06 07:04:45;;;;;;;6.33;5.03;;;-0.40;83.50;;;;;;6172015;28;20047;-78
2021/03/06 07:07:47;;;;;;;6.50;4.83;;;-0.30;83.20;;;;;;6179024;28;20129;-78
2021/03/06 07:10:50;;;;;;;6.03;5.00;;;-0.20;82.10;;;;;;6171068;28;20086;-78
2021/03/06 07:13:52;;;;;;;6.60;5.37;;;-0.10;81.60;;;;;;6175513;28;20158;-78
2021/03/06 07:16:57;;;;;;;13.30;6.33;;;0.10;81.30;;;;;;6179780;28;20085;-77
2021/03/06 07:19:58;;;;;;;5.70;4.20;;;0.20;80.50;;;;;;6174994;28;20037;-77
2021/03/06 07:23:15;;;;;;;7.47;4.57;;;0.40;79.70;;;;;;6175610;28;20054;-78
2021/03/06 07:26:17;;;;;;;8.63;4.30;;;0.60;78.40;;;;;;6179373;28;20265;-78
2021/03/06 07:29:19;;;;;;;7.77;4.27;;;0.70;77.90;;;;;;6174130;28;20054;-77
2021/03/06 07:32:24;;;;;;;4.97;3.10;;;0.90;77.10;;;;;;6179122;28;20119;-79
2021/03/06 07:35:25;;;;;;;4.97;4.47;;;1.10;76.40;;;;;;6171057;28;20050;-78
2021/03/06 07:38:27;;;;;;;4.50;4.10;;;1.30;74.80;;;;;;6171506;28;20147;-78
2021/03/06 07:41:32;;;;;;;4.80;4.17;;;1.50;74.10;;;;;;6170634;28;20042;-78
2021/03/06 07:44:39;;;;;;;5.50;4.97;;;1.80;73.00;;;;;;6176475;28;20090;-78
2021/03/06 07:47:43;;;;;;;7.97;4.90;;;2.00;71.70;;;;;;6169289;28;20524;-77
2021/03/06 07:50:47;;;;;;;8.03;4.67;;;2.10;70.00;;;;;;6172840;28;20443;-78
2021/03/06 07:53:50;;;;;;;7.67;5.70;;;2.20;69.00;;;;;;6170126;28;20047;-77
2021/03/06 07:56:52;;;;;;;6.90;4.07;;;2.30;68.70;;;;;;6175178;28;20071;-78
2021/03/06 07:59:55;;;;;;;6.17;5.57;;;2.40;68.40;;;;;;6170261;28;20071;-79
2021/03/06 08:02:56;;;;;;;3.87;3.57;;;2.60;68.40;;;;;;6170300;28;20055;-77
2021/03/06 08:05:58;;;;;;;5.50;4.30;;;2.70;65.90;;;;;;6175659;28;20034;-78
2021/03/06 08:09:08;;;;;;;6.00;5.30;;;2.80;66.60;;;;;;6178223;28;20090;-78
2021/03/06 08:12:09;;;;;;;6.60;6.00;;;2.90;65.60;;;;;;6172037;28;20505;-78
2021/03/06 08:15:28;;;;;;;6.27;4.40;;;3.10;65.30;;;;;;6177120;28;20110;-79
2021/03/06 08:18:32;;;;;;;4.88;4.32;;;3.10;64.60;;;;;;6174774;28;20078;-77
2021/03/06 08:21:37;;;;;;;6.00;5.03;;;3.10;63.20;;;;;;6175850;28;20042;-78
2021/03/06 08:24:40;;;;;;;5.60;3.77;;;3.30;62.10;;;;;;6170702;28;20504;-79
2021/03/06 08:27:41;;;;;;;4.53;3.53;;;3.60;63.50;;;;;;6171243;28;20070;-79
2021/03/06 08:30:42;;;;;;;7.15;4.30;;;3.80;63.00;;;;;;6166821;28;20079;-78
2021/03/06 08:33:44;;;;;;;6.93;3.93;;;3.80;60.80;;;;;;6175805;28;20051;-79
2021/03/06 08:36:45;;;;;;;4.13;3.53;;;4.10;64.50;;;;;;6172211;28;20038;-81
2021/03/06 08:39:49;;;;;;;6.60;4.65;;;4.40;61.50;;;;;;6179431;28;20058;-80
2021/03/06 08:42:52;;;;;;;4.10;3.45;;;4.40;60.90;;;;;;6171777;28;20078;-80
2021/03/06 08:45:53;;;;;;;5.10;4.05;;;4.60;63.10;;;;;;6191937;28;20034;-80
2021/03/06 08:48:54;;;;;;;5.40;4.45;;;5.00;59.90;;;;;;6193158;28;20091;-81
2021/03/06 08:51:56;;;;;;;6.30;5.25;;;5.30;59.50;;;;;;6178892;28;20398;-81
2021/03/06 08:54:59;;;;;;;4.55;3.80;;;5.40;58.20;;;;;;6177207;28;20395;-80
2021/03/06 08:58:02;;;;;;;4.78;3.92;;;5.70;58.80;;;;;;6171746;28;20038;-80
2021/03/06 09:01:05;;;;;;;7.20;4.20;;;6.00;57.30;;;;;;6175751;28;20074;-80
2021/03/06 09:04:07;;;;;;;6.05;3.92;;;6.00;58.40;;;;;;6174870;28;20047;-80
2021/03/06 09:07:10;;;;;;;5.63;4.53;;;6.10;55.90;;;;;;6181288;28;20079;-81
2021/03/06 09:10:32;;;;;;;5.35;4.43;;;6.10;54.80;;;;;;6180133;28;20432;-80
2021/03/06 09:13:34;;;;;;;5.82;4.72;;;5.90;56.40;;;;;;6174465;28;20055;-81
2021/03/06 09:16:36;;;;;;;5.15;4.47;;;6.00;55.30;;;;;;6179100;28;20081;-80
2021/03/06 09:19:37;;;;;;;5.70;4.80;;;6.10;55.30;;;;;;6174947;28;20090;-81
2021/03/06 09:22:42;;;;;;;5.30;4.80;;;6.20;54.10;;;;;;6188118;28;20098;-80
2021/03/06 09:25:44;;;;;;;7.35;4.78;;;6.10;54.50;;;;;;6187295;28;20053;-81
2021/03/06 09:28:47;;;;;;;8.73;4.70;;;6.00;53.50;;;;;;6188585;28;20074;-82
2021/03/06 09:31:50;;;;;;;6.15;4.70;;;6.30;55.00;;;;;;6184229;28;20075;-81
2021/03/06 09:34:53;;;;;;;6.03;5.43;;;6.70;53.50;;;;;;6189899;28;20055;-80
2021/03/06 09:38:12;;;;;;;6.97;5.03;;;6.90;54.80;;;;;;6207512;28;20030;-80
2021/03/06 09:41:15;;;;;;;5.70;4.97;;;7.40;52.50;;;;;;6203341;28;20114;-80
2021/03/06 09:44:17;;;;;;;15.18;6.72;;;7.30;50.70;;;;;;6199732;28;20035;-79
2021/03/06 09:47:22;;;;;;;6.55;5.28;;;7.10;50.40;;;;;;6206862;28;20054;-80
2021/03/06 09:50:24;;;;;;;6.78;5.88;;;6.70;50.20;;;;;;6198907;28;20489;-82
2021/03/06 09:53:26;;;;;;;7.68;5.72;;;6.60;51.30;;;;;;6184345;28;20049;-82
2021/03/06 09:56:29;;;;;;;4.95;4.50;;;6.60;50.80;;;;;;6184951;28;20055;-82
2021/03/06 09:59:36;;;;;;;6.10;5.13;;;6.50;50.60;;;;;;6184828;28;20491;-81
2021/03/06 10:02:47;;;;;;;11.38;5.75;;;6.50;51.60;;;;;;6180854;28;20432;-82
2021/03/06 10:05:49;;;;;;;6.20;4.75;;;6.60;52.20;;;;;;6189716;28;20066;-83
2021/03/06 10:08:53;;;;;;;8.43;5.47;;;6.80;51.20;;;;;;6191470;28;20043;-80
2021/03/06 10:12:02;;;;;;;6.53;5.00;;;6.80;50.70;;;;;;6172870;28;20039;-82
2021/03/06 10:15:04;;;;;;;5.95;5.32;;;6.80;51.30;;;;;;6185106;28;20061;-78
2021/03/06 10:18:06;;;;;;;8.68;5.13;;;7.10;51.40;;;;;;6188756;28;20043;-81
2021/03/06 10:21:12;;;;;;;5.38;4.82;;;7.20;49.60;;;;;;6184529;28;20054;-80
2021/03/06 10:24:14;;;;;;;6.10;5.15;;;7.40;50.80;;;;;;6174374;28;20405;-82
2021/03/06 10:27:16;;;;;;;5.93;5.40;;;7.60;48.70;;;;;;6181686;28;20050;-80
2021/03/06 10:30:20;;;;;;;8.50;6.05;;;7.40;49.70;;;;;;6188063;28;20110;-82
2021/03/06 10:33:22;;;;;;;8.88;5.20;;;7.50;48.60;;;;;;6175677;28;20048;-82
2021/03/06 10:36:24;;;;;;;7.70;4.90;;;7.50;49.20;;;;;;6181159;28;20568;-81
2021/03/06 10:39:25;;;;;;;4.07;3.67;;;7.50;48.90;;;;;;6180681;28;20047;-82
2021/03/06 10:42:44;;;;;;;7.03;4.93;;;7.40;47.70;;;;;;6184693;28;20043;-82
2021/03/06 10:45:45;;;;;;;6.28;5.32;;;7.20;47.50;;;;;;6187556;28;20062;-81
2021/03/06 10:48:53;;;;;;;5.50;4.82;;;7.10;47.40;;;;;;6174471;28;20405;-81
2021/03/06 10:51:54;;;;;;;12.52;5.50;;;7.30;48.00;;;;;;6179336;28;20103;-79
2021/03/06 10:54:57;;;;;;;4.75;4.35;;;7.30;47.30;;;;;;6169634;28;20062;-81
2021/03/06 10:58:00;;;;;;;11.60;4.82;;;7.40;46.80;;;;;;6175823;28;20047;-81
2021/03/06 11:01:02;;;;;;;5.22;4.72;;;7.60;48.50;;;;;;6185777;28;20085;-82
2021/03/06 11:04:03;;;;;;;6.10;4.68;;;7.90;47.90;;;;;;6189960;28;20043;-82
2021/03/06 11:07:07;;;;;;;3.90;3.60;;;8.10;45.30;;;;;;6186236;28;20082;-83
2021/03/06 11:10:09;;;;;;;4.30;4.00;;;8.00;45.70;;;;;;6184631;28;20050;-81
2021/03/06 11:13:11;;;;;;;5.85;5.15;;;7.90;44.80;;;;;;6183983;28;20081;-82
2021/03/06 11:16:15;;;;;;;6.72;4.45;;;7.90;44.80;;;;;;6186365;28;20047;-82
2021/03/06 11:19:16;;;;;;;5.65;4.80;;;7.80;43.20;;;;;;6176876;28;20055;-81
2021/03/06 11:22:17;;;;;;;6.25;4.43;;;7.60;44.90;;;;;;6183638;28;20460;-82
2021/03/06 11:25:20;;;;;;;5.80;4.38;;;8.00;45.50;;;;;;6179061;28;20047;-82
2021/03/06 11:28:22;;;;;;;5.38;4.80;;;8.30;43.90;;;;;;6183405;28;20061;-82
2021/03/06 11:31:24;;;;;;;5.72;5.07;;;8.30;42.10;;;;;;6182244;28;20050;-83
2021/03/06 11:34:25;;;;;;;4.28;3.70;;;8.20;42.50;;;;;;6184326;28;20568;-82
2021/03/06 11:37:26;;;;;;;6.75;4.82;;;8.20;44.60;;;;;;6185079;28;20134;-81
2021/03/06 11:40:29;;;;;;;4.00;3.63;;;8.50;45.80;;;;;;6177546;28;20046;-80
2021/03/06 11:43:32;;;;;;;5.22;4.45;;;8.60;43.00;;;;;;6177216;28;20097;-81
2021/03/06 11:46:33;;;;;;;7.78;4.97;;;8.40;43.40;;;;;;6182663;28;20046;-82
2021/03/06 11:49:34;;;;;;;4.85;4.38;;;8.50;44.40;;;;;;6176587;28;20071;-82
2021/03/06 11:52:37;;;;;;;5.28;3.72;;;8.60;43.40;;;;;;6173699;28;20101;-82
2021/03/06 11:55:39;;;;;;;5.63;5.13;;;8.90;42.90;;;;;;6169157;28;20054;-82
2021/03/06 11:58:42;;;;;;;6.32;4.47;;;8.90;42.20;;;;;;6180968;28;20109;-81
2021/03/06 12:01:43;;;;;;;4.82;4.28;;;8.80;42.80;;;;;;6179343;28;20459;-79
2021/03/06 12:04:45;;;;;;;4.80;3.88;;;8.80;42.20;;;;;;6180909;28;20077;-81
2021/03/06 12:07:47;;;;;;;4.05;3.65;;;9.00;43.00;;;;;;6181280;28;20066;-81
2021/03/06 12:10:48;;;;;;;5.00;4.40;;;9.10;39.00;;;;;;6170842;28;20062;-81
2021/03/06 12:13:51;;;;;;;4.30;3.95;;;9.00;39.20;;;;;;6179331;28;20397;-81
2021/03/06 12:16:52;;;;;;;3.83;3.13;;;8.90;40.30;;;;;;6197091;28;20046;-79
2021/03/06 12:19:53;;;;;;;4.30;3.90;;;9.00;40.40;;;;;;6190919;28;20046;-80
2021/03/06 12:22:54;;;;;;;6.03;3.60;;;9.30;41.00;;;;;;6190668;28;20041;-81
2021/03/06 12:25:56;;;;;;;6.82;3.72;;;9.50;40.60;;;;;;6181297;28;20065;-80
2021/03/06 12:28:58;;;;;;;4.05;3.70;;;9.60;37.80;;;;;;6178599;28;20094;-80
2021/03/06 12:32:00;;;;;;;5.38;4.03;;;9.60;38.90;;;;;;6180129;28;20047;-81
2021/03/06 12:35:01;;;;;;;4.65;4.10;;;9.60;38.60;;;;;;6177101;28;20058;-81
2021/03/06 12:38:03;;;;;;;5.18;3.65;;;9.60;38.00;;;;;;6180953;28;20050;-83
2021/03/06 12:41:04;;;;;;;4.03;3.63;;;9.70;38.80;;;;;;6177939;28;20042;-82
2021/03/06 12:44:07;;;;;;;5.85;4.55;;;9.70;37.80;;;;;;6181653;28;20584;-81
2021/03/06 12:47:08;;;;;;;6.25;3.78;;;9.90;37.90;;;;;;6174579;28;20051;-81
2021/03/06 12:50:11;;;;;;;3.80;3.38;;;10.00;36.60;;;;;;6167758;28;20058;-81
2021/03/06 12:53:12;;;;;;;4.78;3.75;;;9.90;36.70;;;;;;6176982;28;20054;-80
2021/03/06 12:56:14;;;;;;;3.80;3.47;;;9.80;36.60;;;;;;6178202;28;20048;-80
2021/03/06 12:59:16;;;;;;;4.53;3.30;;;9.60;35.90;;;;;;6180289;28;20105;-80
2021/03/06 13:02:17;;;;;;;3.65;3.30;;;9.40;36.90;;;;;;6170929;28;20051;-80
2021/03/06 13:05:18;;;;;;;4.15;3.33;;;9.60;37.00;;;;;;6175390;28;20067;-80
2021/03/06 13:08:20;;;;;;;12.23;3.88;;;9.50;37.30;;;;;;6177293;28;20049;-81
2021/03/06 13:11:21;;;;;;;3.53;3.22;;;9.50;37.80;;;;;;6179546;28;20047;-80
2021/03/06 13:14:23;;;;;;;4.40;3.20;;;9.50;36.70;;;;;;6173110;28;20101;-80
2021/03/06 13:17:25;;;;;;;5.80;3.33;;;9.50;36.10;;;;;;6178206;28;20066;-81
2021/03/06 13:20:26;;;;;;;3.58;3.20;;;9.50;36.80;;;;;;6180363;28;20055;-80
2021/03/06 13:23:28;;;;;;;3.10;2.80;;;9.60;37.30;;;;;;6178229;28;20047;-81
2021/03/06 13:26:29;;;;;;;4.75;4.35;;;9.60;36.40;;;;;;6175635;28;20063;-80
2021/03/06 13:29:32;;;;;;;3.85;3.55;;;9.60;37.20;;;;;;6168800;28;20074;-80
2021/03/06 13:32:33;;;;;;;4.00;3.15;;;9.60;36.60;;;;;;6164288;28;20055;-81
2021/03/06 13:35:34;;;;;;;4.47;3.53;;;9.50;37.50;;;;;;6179269;28;20589;-80
2021/03/06 13:38:36;;;;;;;5.65;3.10;;;9.50;36.60;;;;;;6171056;28;20090;-80
2021/03/06 13:41:37;;;;;;;4.50;3.25;;;9.60;36.80;;;;;;6169246;28;20055;-81
2021/03/06 13:44:40;;;;;;;3.72;3.42;;;9.80;36.70;;;;;;6172069;28;20657;-81
2021/03/06 13:47:42;;;;;;;5.55;3.67;;;9.90;37.20;;;;;;6175517;28;20122;-80
2021/03/06 13:50:43;;;;;;;4.07;3.70;;;9.90;38.00;;;;;;6181855;28;20046;-81
2021/03/06 13:53:44;;;;;;;6.15;3.80;;;9.90;36.50;;;;;;6176721;28;20069;-80
2021/03/06 13:56:46;;;;;;;4.93;3.92;;;9.80;36.20;;;;;;6179573;28;20070;-79
2021/03/06 13:59:49;;;;;;;5.95;4.53;;;9.70;36.90;;;;;;6192611;28;20027;-80
2021/03/06 14:02:50;;;;;;;4.95;4.55;;;9.60;38.20;;;;;;6175321;28;20075;-81
2021/03/06 14:05:52;;;;;;;3.15;2.85;;;9.80;38.50;;;;;;6176042;28;20532;-81
2021/03/06 14:08:53;;;;;;;3.60;3.17;;;9.90;38.20;;;;;;6180198;28;20067;-80
2021/03/06 14:11:54;;;;;;;4.72;4.28;;;9.90;38.30;;;;;;6179391;28;20058;-79
2021/03/06 14:14:57;;;;;;;3.67;3.38;;;10.00;39.30;;;;;;6178200;28;20621;-82
2021/03/06 14:17:58;;;;;;;3.85;3.55;;;10.10;39.30;;;;;;6185375;28;20054;-82
2021/03/06 14:21:00;;;;;;;4.03;3.78;;;10.00;37.60;;;;;;6185721;28;20174;-81
2021/03/06 14:24:01;;;;;;;3.38;3.08;;;10.00;37.40;;;;;;6175540;28;20062;-81
2021/03/06 14:27:03;;;;;;;4.85;3.25;;;9.90;37.50;;;;;;6176409;28;20043;-81
2021/03/06 14:30:08;;;;;;;4.55;3.47;;;9.80;38.10;;;;;;6184674;28;20050;-81
2021/03/06 14:33:09;;;;;;;4.93;3.60;;;9.80;37.90;;;;;;6178504;28;20509;-81
2021/03/06 14:36:10;;;;;;;4.05;3.75;;;9.70;38.20;;;;;;6179616;28;20058;-80
2021/03/06 14:39:13;;;;;;;4.40;4.00;;;9.80;39.30;;;;;;6180012;28;20051;-81
2021/03/06 14:42:16;;;;;;;3.03;2.75;;;9.90;38.50;;;;;;6177603;28;20055;-82
2021/03/06 14:45:18;;;;;;;5.07;3.33;;;9.90;36.40;;;;;;6180853;28;20074;-81
2021/03/06 14:48:20;;;;;;;3.78;3.40;;;9.70;38.00;;;;;;6184471;28;20098;-81
2021/03/06 14:51:21;;;;;;;4.40;4.00;;;9.70;38.40;;;;;;6181719;28;20046;-81
2021/03/06 14:54:23;;;;;;;4.00;3.60;;;9.80;39.40;;;;;;6182362;28;20153;-82
2021/03/06 14:57:24;;;;;;;8.73;4.20;;;10.00;37.70;;;;;;6179501;28;20062;-80
2021/03/06 15:00:27;;;;;;;4.40;4.00;;;9.90;38.30;;;;;;6197040;28;20382;-81
2021/03/06 15:03:29;;;;;;;4.47;3.58;;;9.80;38.00;;;;;;6178522;28;20500;-80
2021/03/06 15:06:30;;;;;;;3.42;3.13;;;9.70;38.10;;;;;;6169903;28;20051;-80
2021/03/06 15:09:31;;;;;;;3.42;3.13;;;9.50;38.20;;;;;;6170418;28;20053;-80
2021/03/06 15:12:33;;;;;;;7.28;2.22;;;9.40;38.40;;;;;;6181262;28;20059;-80
2021/03/06 15:15:35;;;;;;;3.92;3.53;;;9.30;38.50;;;;;;6177350;28;20527;-82
2021/03/06 15:18:36;;;;;;;5.30;4.15;;;9.20;38.90;;;;;;6178068;28;20051;-81
2021/03/06 15:21:37;;;;;;;4.43;3.92;;;9.30;39.00;;;;;;6172457;28;20091;-81
2021/03/06 15:24:39;;;;;;;4.55;3.97;;;9.20;38.50;;;;;;6170114;28;20039;-80
2021/03/06 15:27:40;;;;;;;3.97;3.50;;;9.10;39.10;;;;;;6178069;28;20081;-79
2021/03/06 15:30:43;;;;;;;4.20;3.80;;;9.10;39.00;;;;;;6180549;28;20090;-80
2021/03/06 15:33:44;;;;;;;3.58;3.28;;;9.20;39.10;;;;;;6185247;28;20097;-78
2021/03/06 15:36:46;;;;;;;3.92;3.63;;;9.00;38.70;;;;;;6182353;28;20456;-79
2021/03/06 15:39:47;;;;;;;4.10;3.72;;;8.90;38.20;;;;;;6175901;28;20067;-79
2021/03/06 15:42:49;;;;;;;3.33;3.03;;;8.70;38.80;;;;;;6165650;28;20047;-80
2021/03/06 15:45:52;;;;;;;5.25;4.20;;;8.60;39.30;;;;;;6152163;28;20129;-79
2021/03/06 15:48:54;;;;;;;4.78;3.45;;;8.40;39.60;;;;;;6155444;28;20040;-80
2021/03/06 15:51:55;;;;;;;3.58;3.28;;;8.20;40.00;;;;;;6152947;28;20054;-79
2021/03/06 15:54:56;;;;;;;4.88;4.00;;;8.10;40.50;;;;;;6165980;28;20044;-79
2021/03/06 15:57:58;;;;;;;7.80;4.35;;;8.10;40.40;;;;;;6155797;28;20044;-79